DB0RES-5 Weather Reports


Display with metric or nautical units.
time (UTC)temp
F
wind
direction
speed
MPH
gust
MPH
rain 1hr
in
rain 24hr
in
rain mn
in
humidity
%
barometer
mb
20240522215114 60 261 2.0 6.0 0.00 0.17 0.15 77 1014.0
20240522214112 60 217 3.0 7.0 0.00 0.18 0.15 76 1013.9
20240522213109 60 180 3.0 6.0 0.00 0.19 0.15 76 1013.9
20240522212108 0 0.0 0.0 0.00 0.21 0.15 1013.8
20240522211104 0 0.0 0.0 0.00 0.21 0.15 1013.8
20240522210101 60 180 4.0 6.0 0.00 0.22 0.15 77 1013.8
20240522205058 60 165 2.0 6.0 0.00 0.22 0.15 77 1013.7
20240522204055 60 190 3.0 4.0 0.00 0.22 0.15 77 1013.6
20240522203053 61 197 2.0 4.0 0.00 0.24 0.15 76 1013.6
20240522202050 61 190 2.0 4.0 0.00 0.24 0.15 75 1013.6
20240522201047 61 171 1.0 4.0 0.00 0.24 0.15 75 1013.4
20240522200045 62 203 2.0 4.0 0.00 0.25 0.15 72 1013.3
20240522195042 62 225 3.0 7.0 0.00 0.25 0.15 72 1013.2
20240522194039 62 236 3.0 9.0 0.00 0.26 0.15 72 1013.1
20240522193036 63 216 2.0 7.0 0.00 0.26 0.15 71 1012.9
20240522192034 63 195 3.0 6.0 0.00 0.27 0.15 70 1012.7
20240522191031 63 234 5.0 7.0 0.00 0.27 0.15 69 1012.5
20240522190028 63 216 3.0 7.0 0.00 0.28 0.15 69 1012.4
20240522185026 64 221 5.0 8.0 0.00 0.30 0.15 68 1012.3
20240522184023 64 250 5.0 9.0 0.00 0.35 0.15 67 1012.1
20240522183020 64 247 6.0 13.0 0.00 0.40 0.15 66 1012.0
20240522182017 65 227 7.0 14.0 0.00 0.43 0.15 67 1011.9
20240522181115 65 222 4.0 9.0 0.00 0.48 0.15 69 1011.9
20240522180112 66 230 6.0 15.0 0.00 0.56 0.15 67 1011.8
20240522175109 66 220 4.0 9.0 0.00 0.59 0.15 67 1011.7
20240522174107 66 219 4.0 8.0 0.00 0.61 0.15 67 1011.7
20240522173104 66 155 2.0 7.0 0.00 0.69 0.15 67 1011.7
20240522172101 66 252 3.0 7.0 0.00 0.83 0.15 66 1011.5
20240522171059 66 220 3.0 8.0 0.00 0.96 0.15 65 1011.5
20240522170056 66 204 3.0 6.0 0.00 1.25 0.15 66 1011.6
20240522165053 67 207 4.0 9.0 0.00 1.31 0.15 64 1011.6
20240522164050 68 212 3.0 7.0 0.00 1.31 0.15 62 1011.6
20240522163047 67 183 4.0 11.0 0.00 1.31 0.15 61 1011.5
20240522162045 67 237 4.0 11.0 0.00 1.31 0.15 60 1011.6
20240522161042 67 218 5.0 9.0 0.00 1.31 0.15 59 1011.6
20240522160039 67 222 4.0 8.0 0.00 1.31 0.15 60 1011.6
20240522155037 68 191 5.0 9.0 0.00 1.31 0.15 58 1011.8
20240522154034 67 259 3.0 8.0 0.00 1.31 0.15 60 1011.8
20240522153030 67 191 4.0 11.0 0.00 1.31 0.15 59 1011.8
20240522152028 67 231 4.0 9.0 0.00 1.31 0.15 61 1011.7
20240522151025 66 239 5.0 11.0 0.00 1.31 0.15 63 1011.8
20240522150022 66 189 5.0 11.0 0.00 1.31 0.15 62 1011.9
20240522145020 66 172 7.0 13.0 0.00 1.31 0.15 64 1011.8
20240522144017 65 238 5.0 13.0 0.00 1.31 0.15 65 1011.9
20240522143114 65 238 6.0 9.0 0.00 1.31 0.15 66 1011.9
20240522142112 65 226 3.0 7.0 0.00 1.31 0.15 65 1012.0
20240522141109 65 203 4.0 8.0 0.00 1.31 0.15 66 1011.9
20240522140106 64 216 4.0 8.0 0.00 1.31 0.15 67 1011.9
20240522135103 64 198 7.0 14.0 0.00 1.31 0.15 68 1011.9
20240522134101 64 230 4.0 11.0 0.00 1.31 0.15 69 1011.9
20240522133058 63 222 5.0 9.0 0.00 1.31 0.15 69 1011.9
20240522132055 63 230 4.0 9.0 0.00 1.31 0.15 69 1011.9
20240522131052 63 221 5.0 11.0 0.00 1.31 0.15 70 1011.8
20240522130050 63 241 5.0 11.0 0.00 1.31 0.15 72 1011.7
20240522125047 62 189 5.0 9.0 0.00 1.31 0.15 73 1011.6
20240522124044 62 237 5.0 13.0 0.00 1.31 0.15 73 1011.6
20240522123042 62 223 8.0 14.0 0.00 1.31 0.15 72 1011.5
20240522122039 62 237 7.0 14.0 0.00 1.31 0.15 74 1011.4
20240522121036 61 233 8.0 17.0 0.00 1.31 0.15 74 1011.5
20240522120033 62 238 5.0 11.0 0.00 1.31 0.15 75 1011.4
20240522115031 61 226 8.0 13.0 0.00 1.31 0.15 75 1011.4
20240522114028 61 243 6.0 11.0 0.00 1.31 0.15 76 1011.1
20240522113025 61 232 8.0 13.0 0.00 1.31 0.15 76 1011.0
20240522112023 61 230 8.0 13.0 0.00 1.31 0.15 74 1011.0
20240522111020 61 233 9.0 16.0 0.00 1.31 0.15 74 1010.9
20240522110017 62 234 8.0 14.0 0.00 1.31 0.15 73 1010.8
20240522105115 62 215 7.0 15.0 0.00 1.31 0.15 71 1010.8
20240522104112 62 231 9.0 16.0 0.00 1.31 0.15 72 1010.6
20240522103109 61 184 3.0 8.0 0.00 1.31 0.15 77 1010.5
20240522102106 61 231 4.0 8.0 0.00 1.31 0.15 76 1010.5
20240522101104 61 230 4.0 11.0 0.00 1.31 0.15 77 1010.5
20240522100101 60 249 6.0 13.0 0.00 1.31 0.15 77 1010.3
20240522095058 60 235 7.0 15.0 0.00 1.31 0.15 78 1010.2
20240522094056 61 225 5.0 11.0 0.00 1.31 0.15 77 1010.1
20240522093053 60 258 7.0 11.0 0.00 1.31 0.15 78 1010.0
20240522092050 61 204 4.0 11.0 0.00 1.31 0.15 78 1009.8
20240522091047 61 239 5.0 11.0 0.00 1.31 0.15 79 1009.8
20240522090045 61 224 7.0 11.0 0.00 1.31 0.15 78 1009.8
20240522085042 61 226 7.0 11.0 0.00 1.31 0.15 77 1009.7
20240522084039 60 240 4.0 9.0 0.00 1.31 0.15 79 1009.6
20240522083036 60 246 6.0 14.0 0.00 1.31 0.15 79 1009.6
20240522082034 60 217 7.0 17.0 0.00 1.31 0.15 78 1009.4
20240522081031 60 214 7.0 11.0 0.00 1.31 0.15 80 1009.2
20240522080028 60 247 5.0 9.0 0.00 1.31 0.15 81 1009.2
20240522075025 59 230 6.0 11.0 0.00 1.31 0.15 81 1009.3
20240522074023 59 236 5.0 8.0 0.00 1.31 0.15 83 1009.1
20240522073018 59 244 8.0 14.0 0.00 1.31 0.15 84 1009.1
20240522072016 59 263 7.0 15.0 0.00 1.31 0.15 85 1009.0
20240522071113 59 193 7.0 11.0 0.00 1.31 0.15 86 1008.8
20240522070110 59 221 7.0 14.0 0.00 1.31 0.15 87 1008.8
20240522065108 59 219 7.0 13.0 0.00 1.31 0.15 87 1008.6
20240522064105 59 207 5.0 11.0 0.00 1.31 0.15 89 1008.4
20240522063102 59 232 4.0 9.0 0.00 1.31 0.15 90 1008.3
20240522062059 59 223 3.0 8.0 0.00 1.31 0.15 90 1008.2
20240522061057 59 122 2.0 6.0 0.00 1.31 0.15 91 1008.0
20240522060054 59 220 3.0 8.0 0.00 1.31 0.15 91 1007.9
20240522055051 59 179 4.0 7.0 0.00 1.31 0.15 91 1007.8
20240522054048 58 197 5.0 8.0 0.00 1.31 0.15 90 1007.7
20240522053046 58 226 4.0 8.0 0.00 1.31 0.15 90 1007.7
20240522052043 58 214 4.0 9.0 0.00 1.31 0.15 91 1007.5
20240522051040 58 201 3.0 8.0 0.00 1.31 0.15 91 1007.3
20240522050038 58 218 3.0 8.0 0.00 1.31 0.15 91 1007.2
20240522045035 58 239 5.0 9.0 0.00 1.31 0.15 91 1007.1
20240522044032 58 220 4.0 9.0 0.00 1.31 0.15 91 1007.1
20240522043030 58 205 4.0 8.0 0.00 1.31 0.15 92 1006.9
20240522042027 58 203 5.0 8.0 0.00 1.31 0.15 92 1006.7
20240522041024 58 220 4.0 8.0 0.00 1.31 0.15 92 1006.6
20240522040021 58 215 4.0 9.0 0.00 1.31 0.15 92 1006.6
20240522035019 58 213 4.0 9.0 0.00 1.31 0.15 92 1006.6
20240522034016 58 231 4.0 9.0 0.00 1.31 0.15 92 1006.6
20240522033113 58 232 5.0 9.0 0.00 1.31 0.15 92 1006.5
20240522032111 58 263 3.0 9.0 0.00 1.31 0.15 92 1006.3
20240522031108 58 229 4.0 8.0 0.00 1.31 0.15 93 1006.4
20240522030105 58 239 5.0 8.0 0.00 1.31 0.15 93 1006.2
20240522025102 58 206 5.0 9.0 0.00 1.31 0.15 93 1006.4
20240522024100 58 253 3.0 7.0 0.00 1.31 0.15 93 1006.4
20240522023057 58 231 4.0 6.0 0.00 1.31 0.15 93 1006.2
20240522022056 58 243 4.0 6.0 0.00 1.31 0.15 93 1006.3
20240522021052 58 232 3.0 6.0 0.00 1.31 0.15 93 1006.2
20240522020049 58 255 2.0 4.0 0.00 1.31 0.15 93 1006.1
20240522015046 58 229 2.0 4.0 0.00 1.31 0.15 93 1006.1
20240522014044 58 242 4.0 7.0 0.00 1.31 0.15 93 1006.1
20240522013041 58 236 4.0 6.0 0.00 1.31 0.15 93 1006.2
20240522012038 58 221 5.0 7.0 0.00 1.31 0.15 94 1006.0
20240522011035 57 238 2.0 4.0 0.00 1.31 0.15 94 1006.1
20240522010032 57 234 3.0 6.0 0.00 1.31 0.15 94 1006.2
20240522005030 58 248 1.0 4.0 0.00 1.31 0.15 94 1006.2
20240522004027 57 278 2.0 4.0 0.00 1.31 0.15 94 1006.2
20240522003024 57 257 3.0 4.0 0.00 1.31 0.15 94 1006.1
20240522002022 57 257 2.0 7.0 0.01 1.31 0.15 94 1006.1
20240522001019 57 313 3.0 7.0 0.02 1.31 0.15 94 1006.1
20240522000016 58 318 3.0 7.0 0.02 1.31 0.15 94 1006.2
20240521235114 58 298 2.0 6.0 0.04 1.31 0.15 94 1006.3
20240521234111 58 293 2.0 7.0 0.05 1.31 0.15 94 1006.3
20240521233108 58 284 3.0 8.0 0.06 1.31 0.15 94 1006.4
20240521232105 58 283 2.0 6.0 0.07 1.30 0.14 94 1006.5
20240521231102 58 283 2.0 7.0 0.08 1.29 0.13 94 1006.6
20240521230100 58 288 3.0 7.0 0.12 1.29 0.13 94 1006.6
20240521225057 58 303 3.0 9.0 0.13 1.28 0.12 94 1006.7
20240521224054 58 275 2.0 4.0 0.13 1.26 0.11 94 1006.7
20240521223052 58 283 1.0 4.0 0.13 1.25 0.09 94 1006.7
20240521222049 58 289 2.0 4.0 0.13 1.23 0.07 94 1006.6
20240521221045 58 300 2.0 4.0 0.11 1.20 0.05 94 1006.7
20240521220043 58 313 2.0 6.0 0.08 1.17 0.01 94 1006.5